sensor_id;sensor_type;location;lat;lon;timestamp;temperature;humidity
45693;DHT22;31402;44.752;-0.374;2022-11-20T00:00:29;9.40;95.80
45693;DHT22;31402;44.752;-0.374;2022-11-20T00:02:55;9.40;95.90
45693;DHT22;31402;44.752;-0.374;2022-11-20T00:05:21;9.40;95.80
45693;DHT22;31402;44.752;-0.374;2022-11-20T00:07:46;9.40;95.80
45693;DHT22;31402;44.752;-0.374;2022-11-20T00:10:12;9.30;95.90
45693;DHT22;31402;44.752;-0.374;2022-11-20T00:12:38;9.20;96.00
45693;DHT22;31402;44.752;-0.374;2022-11-20T00:15:04;9.30;95.90
45693;DHT22;31402;44.752;-0.374;2022-11-20T00:17:30;9.30;95.80
45693;DHT22;31402;44.752;-0.374;2022-11-20T00:19:56;9.10;96.20
45693;DHT22;31402;44.752;-0.374;2022-11-20T00:22:21;9.00;96.30
45693;DHT22;31402;44.752;-0.374;2022-11-20T00:24:47;9.00;96.70
45693;DHT22;31402;44.752;-0.374;2022-11-20T00:27:13;9.00;97.10
45693;DHT22;31402;44.752;-0.374;2022-11-20T00:29:38;9.10;96.80
45693;DHT22;31402;44.752;-0.374;2022-11-20T00:32:04;9.20;96.90
45693;DHT22;31402;44.752;-0.374;2022-11-20T00:34:30;9.10;97.00
45693;DHT22;31402;44.752;-0.374;2022-11-20T00:36:56;9.00;96.90
45693;DHT22;31402;44.752;-0.374;2022-11-20T00:39:21;9.00;97.10
45693;DHT22;31402;44.752;-0.374;2022-11-20T00:41:47;9.10;97.20
45693;DHT22;31402;44.752;-0.374;2022-11-20T00:44:13;9.10;97.30
45693;DHT22;31402;44.752;-0.374;2022-11-20T00:46:38;9.10;97.10
45693;DHT22;31402;44.752;-0.374;2022-11-20T00:49:04;9.20;97.00
45693;DHT22;31402;44.752;-0.374;2022-11-20T00:51:30;9.20;97.20
45693;DHT22;31402;44.752;-0.374;2022-11-20T00:53:56;9.10;97.40
45693;DHT22;31402;44.752;-0.374;2022-11-20T00:56:22;9.10;97.30
45693;DHT22;31402;44.752;-0.374;2022-11-20T00:58:49;9.10;97.20
45693;DHT22;31402;44.752;-0.374;2022-11-20T01:01:22;9.10;97.40
45693;DHT22;31402;44.752;-0.374;2022-11-20T01:03:54;9.10;97.50
45693;DHT22;31402;44.752;-0.374;2022-11-20T01:06:21;9.10;97.30
45693;DHT22;31402;44.752;-0.374;2022-11-20T01:08:48;9.10;97.60
45693;DHT22;31402;44.752;-0.374;2022-11-20T01:11:20;9.10;97.80
45693;DHT22;31402;44.752;-0.374;2022-11-20T01:13:48;9.10;97.90
45693;DHT22;31402;44.752;-0.374;2022-11-20T01:18:44;9.10;97.70
45693;DHT22;31402;44.752;-0.374;2022-11-20T01:21:12;9.10;97.70
45693;DHT22;31402;44.752;-0.374;2022-11-20T01:23:40;9.10;97.80
45693;DHT22;31402;44.752;-0.374;2022-11-20T01:26:10;9.00;97.80
45693;DHT22;31402;44.752;-0.374;2022-11-20T01:28:37;9.00;98.00
45693;DHT22;31402;44.752;-0.374;2022-11-20T01:31:13;9.10;97.80
45693;DHT22;31402;44.752;-0.374;2022-11-20T01:33:40;9.10;97.80
45693;DHT22;31402;44.752;-0.374;2022-11-20T01:36:07;9.00;97.90
45693;DHT22;31402;44.752;-0.374;2022-11-20T01:38:33;9.00;97.90
45693;DHT22;31402;44.752;-0.374;2022-11-20T01:40:59;9.10;97.90
45693;DHT22;31402;44.752;-0.374;2022-11-20T01:43:25;9.10;97.80
45693;DHT22;31402;44.752;-0.374;2022-11-20T01:46:04;9.00;98.00
45693;DHT22;31402;44.752;-0.374;2022-11-20T01:48:41;9.00;98.00
45693;DHT22;31402;44.752;-0.374;2022-11-20T01:51:17;8.90;98.10
45693;DHT22;31402;44.752;-0.374;2022-11-20T01:53:44;8.90;98.00
45693;DHT22;31402;44.752;-0.374;2022-11-20T01:56:13;8.90;98.00
45693;DHT22;31402;44.752;-0.374;2022-11-20T01:58:44;8.90;98.00
45693;DHT22;31402;44.752;-0.374;2022-11-20T02:01:12;8.90;98.10
45693;DHT22;31402;44.752;-0.374;2022-11-20T02:03:39;8.80;98.20
45693;DHT22;31402;44.752;-0.374;2022-11-20T02:06:14;8.80;98.40
45693;DHT22;31402;44.752;-0.374;2022-11-20T02:08:42;8.70;98.50
45693;DHT22;31402;44.752;-0.374;2022-11-20T02:11:08;8.80;98.50
45693;DHT22;31402;44.752;-0.374;2022-11-20T02:13:34;8.70;98.60
45693;DHT22;31402;44.752;-0.374;2022-11-20T02:16:13;8.60;98.60
45693;DHT22;31402;44.752;-0.374;2022-11-20T02:18:40;8.60;98.60
45693;DHT22;31402;44.752;-0.374;2022-11-20T02:24:08;8.70;98.60
45693;DHT22;31402;44.752;-0.374;2022-11-20T02:26:58;8.60;98.70
45693;DHT22;31402;44.752;-0.374;2022-11-20T02:29:34;8.70;98.70
45693;DHT22;31402;44.752;-0.374;2022-11-20T02:32:02;8.70;98.60
45693;DHT22;31402;44.752;-0.374;2022-11-20T02:34:28;8.70;98.60
45693;DHT22;31402;44.752;-0.374;2022-11-20T02:36:54;8.80;98.50
45693;DHT22;31402;44.752;-0.374;2022-11-20T02:39:23;8.90;98.40
45693;DHT22;31402;44.752;-0.374;2022-11-20T02:41:52;8.90;98.40
45693;DHT22;31402;44.752;-0.374;2022-11-20T02:44:19;8.80;98.70
45693;DHT22;31402;44.752;-0.374;2022-11-20T02:46:45;8.80;98.70
45693;DHT22;31402;44.752;-0.374;2022-11-20T02:49:11;8.80;98.60
45693;DHT22;31402;44.752;-0.374;2022-11-20T02:51:37;8.90;98.40
45693;DHT22;31402;44.752;-0.374;2022-11-20T02:54:03;8.80;98.60
45693;DHT22;31402;44.752;-0.374;2022-11-20T02:56:29;8.80;98.60
45693;DHT22;31402;44.752;-0.374;2022-11-20T02:58:55;8.70;98.70
45693;DHT22;31402;44.752;-0.374;2022-11-20T03:01:21;8.70;98.90
45693;DHT22;31402;44.752;-0.374;2022-11-20T03:03:47;8.70;98.60
45693;DHT22;31402;44.752;-0.374;2022-11-20T03:06:15;8.70;98.80
45693;DHT22;31402;44.752;-0.374;2022-11-20T03:08:41;8.60;98.80
45693;DHT22;31402;44.752;-0.374;2022-11-20T03:11:07;8.60;98.80
45693;DHT22;31402;44.752;-0.374;2022-11-20T03:13:34;8.50;98.70
45693;DHT22;31402;44.752;-0.374;2022-11-20T03:16:21;8.40;98.10
45693;DHT22;31402;44.752;-0.374;2022-11-20T03:18:47;8.30;98.70
45693;DHT22;31402;44.752;-0.374;2022-11-20T03:21:14;8.30;98.90
45693;DHT22;31402;44.752;-0.374;2022-11-20T03:23:40;8.20;99.00
45693;DHT22;31402;44.752;-0.374;2022-11-20T03:26:16;8.10;99.10
45693;DHT22;31402;44.752;-0.374;2022-11-20T03:28:46;8.00;99.20
45693;DHT22;31402;44.752;-0.374;2022-11-20T03:31:14;8.00;99.30
45693;DHT22;31402;44.752;-0.374;2022-11-20T03:33:41;8.00;99.50
45693;DHT22;31402;44.752;-0.374;2022-11-20T03:36:12;7.90;99.60
45693;DHT22;31402;44.752;-0.374;2022-11-20T03:38:39;8.00;99.60
45693;DHT22;31402;44.752;-0.374;2022-11-20T03:41:10;8.00;99.60
45693;DHT22;31402;44.752;-0.374;2022-11-20T03:43:36;8.00;99.60
45693;DHT22;31402;44.752;-0.374;2022-11-20T03:46:02;7.90;99.70
45693;DHT22;31402;44.752;-0.374;2022-11-20T03:48:28;8.00;99.80
45693;DHT22;31402;44.752;-0.374;2022-11-20T03:51:15;8.00;99.80
45693;DHT22;31402;44.752;-0.374;2022-11-20T03:53:43;8.00;99.80
45693;DHT22;31402;44.752;-0.374;2022-11-20T03:56:09;8.00;99.90
45693;DHT22;31402;44.752;-0.374;2022-11-20T03:58:36;8.00;99.90
45693;DHT22;31402;44.752;-0.374;2022-11-20T04:03:36;8.00;99.90
45693;DHT22;31402;44.752;-0.374;2022-11-20T04:06:10;8.00;99.90
45693;DHT22;31402;44.752;-0.374;2022-11-20T04:08:36;8.00;99.90
45693;DHT22;31402;44.752;-0.374;2022-11-20T04:11:13;8.00;99.90
45693;DHT22;31402;44.752;-0.374;2022-11-20T04:13:41;8.00;99.90
45693;DHT22;31402;44.752;-0.374;2022-11-20T04:16:08;8.00;99.90
45693;DHT22;31402;44.752;-0.374;2022-11-20T04:18:34;8.10;99.90
45693;DHT22;31402;44.752;-0.374;2022-11-20T04:21:00;8.10;99.90
45693;DHT22;31402;44.752;-0.374;2022-11-20T04:23:27;8.20;99.90
45693;DHT22;31402;44.752;-0.374;2022-11-20T04:25:52;8.40;99.90
45693;DHT22;31402;44.752;-0.374;2022-11-20T04:28:18;8.30;99.90
45693;DHT22;31402;44.752;-0.374;2022-11-20T04:30:44;8.20;99.90
45693;DHT22;31402;44.752;-0.374;2022-11-20T04:33:10;8.10;99.90
45693;DHT22;31402;44.752;-0.374;2022-11-20T04:35:36;8.00;99.90
45693;DHT22;31402;44.752;-0.374;2022-11-20T04:38:02;7.90;99.90
45693;DHT22;31402;44.752;-0.374;2022-11-20T04:40:29;8.00;99.90
45693;DHT22;31402;44.752;-0.374;2022-11-20T04:42:55;8.00;99.90
45693;DHT22;31402;44.752;-0.374;2022-11-20T04:45:21;8.10;99.90
45693;DHT22;31402;44.752;-0.374;2022-11-20T04:47:47;8.20;99.90
45693;DHT22;31402;44.752;-0.374;2022-11-20T04:50:13;8.20;99.90
45693;DHT22;31402;44.752;-0.374;2022-11-20T04:52:39;8.30;99.90
45693;DHT22;31402;44.752;-0.374;2022-11-20T04:55:05;8.30;99.90
45693;DHT22;31402;44.752;-0.374;2022-11-20T04:57:31;8.30;99.90
45693;DHT22;31402;44.752;-0.374;2022-11-20T04:59:56;8.30;99.90
45693;DHT22;31402;44.752;-0.374;2022-11-20T05:02:22;8.40;99.90
45693;DHT22;31402;44.752;-0.374;2022-11-20T05:04:48;8.40;99.90
45693;DHT22;31402;44.752;-0.374;2022-11-20T05:07:14;8.30;99.90
45693;DHT22;31402;44.752;-0.374;2022-11-20T05:09:39;8.30;99.90
45693;DHT22;31402;44.752;-0.374;2022-11-20T05:12:08;8.20;99.90
45693;DHT22;31402;44.752;-0.374;2022-11-20T05:14:34;8.20;99.90
45693;DHT22;31402;44.752;-0.374;2022-11-20T05:16:59;8.10;99.90
45693;DHT22;31402;44.752;-0.374;2022-11-20T05:19:25;8.10;99.90
45693;DHT22;31402;44.752;-0.374;2022-11-20T05:21:51;8.10;99.90
45693;DHT22;31402;44.752;-0.374;2022-11-20T05:24:17;8.10;99.90
45693;DHT22;31402;44.752;-0.374;2022-11-20T05:26:42;8.10;99.90
45693;DHT22;31402;44.752;-0.374;2022-11-20T05:29:11;8.10;99.90
45693;DHT22;31402;44.752;-0.374;2022-11-20T05:31:39;8.10;99.90
45693;DHT22;31402;44.752;-0.374;2022-11-20T05:34:06;8.10;99.90
45693;DHT22;31402;44.752;-0.374;2022-11-20T05:36:32;8.10;99.90
45693;DHT22;31402;44.752;-0.374;2022-11-20T05:38:58;8.00;99.90
45693;DHT22;31402;44.752;-0.374;2022-11-20T05:41:24;8.10;99.90
45693;DHT22;31402;44.752;-0.374;2022-11-20T05:43:50;8.10;99.90
45693;DHT22;31402;44.752;-0.374;2022-11-20T05:46:19;8.00;99.90
45693;DHT22;31402;44.752;-0.374;2022-11-20T05:48:45;8.00;99.90
45693;DHT22;31402;44.752;-0.374;2022-11-20T05:51:14;7.90;99.90
45693;DHT22;31402;44.752;-0.374;2022-11-20T05:53:41;7.90;99.90
45693;DHT22;31402;44.752;-0.374;2022-11-20T05:56:12;7.90;99.90
45693;DHT22;31402;44.752;-0.374;2022-11-20T05:58:38;7.90;99.90
45693;DHT22;31402;44.752;-0.374;2022-11-20T06:01:10;7.90;99.90
45693;DHT22;31402;44.752;-0.374;2022-11-20T06:03:37;7.90;99.90
45693;DHT22;31402;44.752;-0.374;2022-11-20T06:06:04;7.90;99.90
45693;DHT22;31402;44.752;-0.374;2022-11-20T06:08:31;8.00;99.90
45693;DHT22;31402;44.752;-0.374;2022-11-20T06:10:57;8.00;99.90
45693;DHT22;31402;44.752;-0.374;2022-11-20T06:13:23;8.10;99.90
45693;DHT22;31402;44.752;-0.374;2022-11-20T06:15:53;8.10;99.90
45693;DHT22;31402;44.752;-0.374;2022-11-20T06:18:20;8.10;99.90
45693;DHT22;31402;44.752;-0.374;2022-11-20T06:20:46;8.10;99.90
45693;DHT22;31402;44.752;-0.374;2022-11-20T06:23:12;8.10;99.90
45693;DHT22;31402;44.752;-0.374;2022-11-20T06:25:42;8.20;99.90
45693;DHT22;31402;44.752;-0.374;2022-11-20T06:28:08;8.20;99.90
45693;DHT22;31402;44.752;-0.374;2022-11-20T06:30:35;8.20;99.90
45693;DHT22;31402;44.752;-0.374;2022-11-20T06:33:01;8.20;99.90
45693;DHT22;31402;44.752;-0.374;2022-11-20T06:35:26;8.20;99.90
45693;DHT22;31402;44.752;-0.374;2022-11-20T06:37:52;8.20;99.90
45693;DHT22;31402;44.752;-0.374;2022-11-20T06:40:18;8.30;99.90
45693;DHT22;31402;44.752;-0.374;2022-11-20T06:42:44;8.30;99.90
45693;DHT22;31402;44.752;-0.374;2022-11-20T06:45:10;8.30;99.90
45693;DHT22;31402;44.752;-0.374;2022-11-20T06:47:36;8.30;99.90
45693;DHT22;31402;44.752;-0.374;2022-11-20T06:50:01;8.30;99.90
45693;DHT22;31402;44.752;-0.374;2022-11-20T06:52:27;8.30;99.90
45693;DHT22;31402;44.752;-0.374;2022-11-20T06:54:53;8.20;99.90
45693;DHT22;31402;44.752;-0.374;2022-11-20T06:57:19;8.30;99.90
45693;DHT22;31402;44.752;-0.374;2022-11-20T06:59:45;8.30;99.90
45693;DHT22;31402;44.752;-0.374;2022-11-20T07:02:11;8.30;99.90
45693;DHT22;31402;44.752;-0.374;2022-11-20T07:04:38;8.30;99.90
45693;DHT22;31402;44.752;-0.374;2022-11-20T07:07:03;8.30;99.90
45693;DHT22;31402;44.752;-0.374;2022-11-20T07:09:29;8.20;99.90
45693;DHT22;31402;44.752;-0.374;2022-11-20T07:11:55;8.20;99.90
45693;DHT22;31402;44.752;-0.374;2022-11-20T07:14:20;8.20;99.90
45693;DHT22;31402;44.752;-0.374;2022-11-20T07:16:46;8.20;99.90
45693;DHT22;31402;44.752;-0.374;2022-11-20T07:19:12;8.20;99.90
45693;DHT22;31402;44.752;-0.374;2022-11-20T07:21:38;8.30;99.90
45693;DHT22;31402;44.752;-0.374;2022-11-20T07:24:03;8.30;99.90
45693;DHT22;31402;44.752;-0.374;2022-11-20T07:26:29;8.30;99.90
45693;DHT22;31402;44.752;-0.374;2022-11-20T07:28:55;8.30;99.90
45693;DHT22;31402;44.752;-0.374;2022-11-20T07:31:21;8.30;99.90
45693;DHT22;31402;44.752;-0.374;2022-11-20T07:33:47;8.30;99.90
45693;DHT22;31402;44.752;-0.374;2022-11-20T07:36:12;8.40;99.90
45693;DHT22;31402;44.752;-0.374;2022-11-20T07:38:38;8.40;99.90
45693;DHT22;31402;44.752;-0.374;2022-11-20T07:41:04;8.40;99.90
45693;DHT22;31402;44.752;-0.374;2022-11-20T07:43:30;8.40;99.90
45693;DHT22;31402;44.752;-0.374;2022-11-20T07:45:57;8.40;99.90
45693;DHT22;31402;44.752;-0.374;2022-11-20T07:48:23;8.50;99.90
45693;DHT22;31402;44.752;-0.374;2022-11-20T07:50:49;8.60;99.90
45693;DHT22;31402;44.752;-0.374;2022-11-20T07:53:14;8.60;99.90
45693;DHT22;31402;44.752;-0.374;2022-11-20T07:55:46;8.70;99.90
45693;DHT22;31402;44.752;-0.374;2022-11-20T07:58:12;8.80;99.90
45693;DHT22;31402;44.752;-0.374;2022-11-20T08:00:38;8.80;99.90
45693;DHT22;31402;44.752;-0.374;2022-11-20T08:03:04;8.90;99.90
45693;DHT22;31402;44.752;-0.374;2022-11-20T08:05:30;8.90;99.90
45693;DHT22;31402;44.752;-0.374;2022-11-20T08:07:56;8.90;99.90
45693;DHT22;31402;44.752;-0.374;2022-11-20T08:10:21;8.90;99.90
45693;DHT22;31402;44.752;-0.374;2022-11-20T08:12:49;9.00;99.90
45693;DHT22;31402;44.752;-0.374;2022-11-20T08:15:34;9.00;99.90
45693;DHT22;31402;44.752;-0.374;2022-11-20T08:18:04;9.00;99.90
45693;DHT22;31402;44.752;-0.374;2022-11-20T08:20:30;9.10;99.90
45693;DHT22;31402;44.752;-0.374;2022-11-20T08:23:05;9.00;99.90
45693;DHT22;31402;44.752;-0.374;2022-11-20T08:25:32;9.10;99.90
45693;DHT22;31402;44.752;-0.374;2022-11-20T08:28:00;9.10;99.90
45693;DHT22;31402;44.752;-0.374;2022-11-20T08:30:26;9.10;99.90
45693;DHT22;31402;44.752;-0.374;2022-11-20T08:32:52;9.10;99.90
45693;DHT22;31402;44.752;-0.374;2022-11-20T08:35:19;9.20;99.90
45693;DHT22;31402;44.752;-0.374;2022-11-20T08:37:48;9.20;99.90
45693;DHT22;31402;44.752;-0.374;2022-11-20T08:40:14;9.10;99.90
45693;DHT22;31402;44.752;-0.374;2022-11-20T08:42:47;9.20;99.90
45693;DHT22;31402;44.752;-0.374;2022-11-20T08:45:14;9.30;99.90
45693;DHT22;31402;44.752;-0.374;2022-11-20T08:47:39;9.30;99.90
45693;DHT22;31402;44.752;-0.374;2022-11-20T08:50:05;9.20;99.90
45693;DHT22;31402;44.752;-0.374;2022-11-20T08:52:31;9.30;99.90
45693;DHT22;31402;44.752;-0.374;2022-11-20T08:54:57;9.30;99.90
45693;DHT22;31402;44.752;-0.374;2022-11-20T08:57:23;9.30;99.90
45693;DHT22;31402;44.752;-0.374;2022-11-20T08:59:49;9.40;99.90
45693;DHT22;31402;44.752;-0.374;2022-11-20T09:02:14;9.40;99.90
45693;DHT22;31402;44.752;-0.374;2022-11-20T09:04:40;9.40;99.90
45693;DHT22;31402;44.752;-0.374;2022-11-20T09:07:06;9.30;99.90
45693;DHT22;31402;44.752;-0.374;2022-11-20T09:09:32;9.30;99.90
45693;DHT22;31402;44.752;-0.374;2022-11-20T09:11:58;9.40;99.90
45693;DHT22;31402;44.752;-0.374;2022-11-20T09:14:24;9.40;99.90
45693;DHT22;31402;44.752;-0.374;2022-11-20T09:16:55;9.40;99.90
45693;DHT22;31402;44.752;-0.374;2022-11-20T09:19:20;9.40;99.90
45693;DHT22;31402;44.752;-0.374;2022-11-20T09:21:46;9.50;99.90
45693;DHT22;31402;44.752;-0.374;2022-11-20T09:24:12;9.50;99.90
45693;DHT22;31402;44.752;-0.374;2022-11-20T09:26:38;9.50;99.90
45693;DHT22;31402;44.752;-0.374;2022-11-20T09:29:04;9.60;99.90
45693;DHT22;31402;44.752;-0.374;2022-11-20T09:31:29;9.60;99.90
45693;DHT22;31402;44.752;-0.374;2022-11-20T09:33:55;9.70;99.90
45693;DHT22;31402;44.752;-0.374;2022-11-20T09:36:21;9.70;99.90
45693;DHT22;31402;44.752;-0.374;2022-11-20T09:38:47;9.70;99.90
45693;DHT22;31402;44.752;-0.374;2022-11-20T09:46:57;9.80;99.90
45693;DHT22;31402;44.752;-0.374;2022-11-20T09:53:10;9.80;99.90
45693;DHT22;31402;44.752;-0.374;2022-11-20T09:55:37;9.80;99.90
45693;DHT22;31402;44.752;-0.374;2022-11-20T09:58:06;9.90;99.90
45693;DHT22;31402;44.752;-0.374;2022-11-20T10:00:35;9.90;99.90
45693;DHT22;31402;44.752;-0.374;2022-11-20T10:03:11;10.00;99.90
45693;DHT22;31402;44.752;-0.374;2022-11-20T10:05:47;9.90;99.90
45693;DHT22;31402;44.752;-0.374;2022-11-20T10:08:18;9.90;99.90
45693;DHT22;31402;44.752;-0.374;2022-11-20T10:10:52;10.00;99.90
45693;DHT22;31402;44.752;-0.374;2022-11-20T10:13:36;10.00;99.90
45693;DHT22;31402;44.752;-0.374;2022-11-20T10:29:40;10.10;99.90
45693;DHT22;31402;44.752;-0.374;2022-11-20T10:32:15;10.10;99.90
45693;DHT22;31402;44.752;-0.374;2022-11-20T10:34:59;10.10;99.90
45693;DHT22;31402;44.752;-0.374;2022-11-20T10:37:27;10.20;99.90
45693;DHT22;31402;44.752;-0.374;2022-11-20T10:40:05;10.20;99.90
45693;DHT22;31402;44.752;-0.374;2022-11-20T10:42:57;10.30;99.90
45693;DHT22;31402;44.752;-0.374;2022-11-20T10:48:20;10.40;99.90
45693;DHT22;31402;44.752;-0.374;2022-11-20T10:56:29;10.60;99.90
45693;DHT22;31402;44.752;-0.374;2022-11-20T10:59:21;10.80;99.90
45693;DHT22;31402;44.752;-0.374;2022-11-20T11:01:52;11.00;99.90
45693;DHT22;31402;44.752;-0.374;2022-11-20T11:04:23;11.10;99.90
45693;DHT22;31402;44.752;-0.374;2022-11-20T11:06:57;11.20;99.90
45693;DHT22;31402;44.752;-0.374;2022-11-20T11:09:38;11.20;99.90
45693;DHT22;31402;44.752;-0.374;2022-11-20T11:12:09;11.30;99.90
45693;DHT22;31402;44.752;-0.374;2022-11-20T11:17:27;11.40;99.90
45693;DHT22;31402;44.752;-0.374;2022-11-20T11:20:17;11.40;99.90
45693;DHT22;31402;44.752;-0.374;2022-11-20T11:22:54;11.40;99.90
45693;DHT22;31402;44.752;-0.374;2022-11-20T11:25:35;11.40;99.90
45693;DHT22;31402;44.752;-0.374;2022-11-20T11:28:19;11.50;99.90
45693;DHT22;31402;44.752;-0.374;2022-11-20T11:30:45;11.60;99.90
45693;DHT22;31402;44.752;-0.374;2022-11-20T11:33:22;11.70;99.90
45693;DHT22;31402;44.752;-0.374;2022-11-20T11:35:50;11.70;99.90
45693;DHT22;31402;44.752;-0.374;2022-11-20T11:38:38;11.90;99.90
45693;DHT22;31402;44.752;-0.374;2022-11-20T11:41:06;12.00;99.90
45693;DHT22;31402;44.752;-0.374;2022-11-20T11:43:35;12.10;99.90
45693;DHT22;31402;44.752;-0.374;2022-11-20T11:46:34;12.20;99.90
45693;DHT22;31402;44.752;-0.374;2022-11-20T11:51:47;12.40;99.90
45693;DHT22;31402;44.752;-0.374;2022-11-20T11:54:28;12.50;99.90
45693;DHT22;31402;44.752;-0.374;2022-11-20T11:56:58;12.60;99.90
45693;DHT22;31402;44.752;-0.374;2022-11-20T11:59:37;12.60;99.90
45693;DHT22;31402;44.752;-0.374;2022-11-20T12:05:03;12.80;99.90
45693;DHT22;31402;44.752;-0.374;2022-11-20T12:08:17;12.80;99.90
45693;DHT22;31402;44.752;-0.374;2022-11-20T12:10:58;13.00;99.90
45693;DHT22;31402;44.752;-0.374;2022-11-20T12:16:00;13.10;99.90
45693;DHT22;31402;44.752;-0.374;2022-11-20T12:18:27;13.20;99.90
45693;DHT22;31402;44.752;-0.374;2022-11-20T12:43:27;14.40;99.90
45693;DHT22;31402;44.752;-0.374;2022-11-20T13:05:13;14.60;99.90
45693;DHT22;31402;44.752;-0.374;2022-11-20T13:07:43;14.60;99.90
45693;DHT22;31402;44.752;-0.374;2022-11-20T13:10:46;14.70;99.90
45693;DHT22;31402;44.752;-0.374;2022-11-20T13:13:28;14.80;99.90
45693;DHT22;31402;44.752;-0.374;2022-11-20T13:16:23;14.90;99.90
45693;DHT22;31402;44.752;-0.374;2022-11-20T13:18:51;15.00;99.90
45693;DHT22;31402;44.752;-0.374;2022-11-20T13:21:19;15.10;99.90
45693;DHT22;31402;44.752;-0.374;2022-11-20T13:23:47;15.10;99.90
45693;DHT22;31402;44.752;-0.374;2022-11-20T13:26:19;15.20;99.90
45693;DHT22;31402;44.752;-0.374;2022-11-20T13:28:48;15.20;99.90
45693;DHT22;31402;44.752;-0.374;2022-11-20T13:31:34;15.20;99.90
45693;DHT22;31402;44.752;-0.374;2022-11-20T13:34:05;15.20;99.90
45693;DHT22;31402;44.752;-0.374;2022-11-20T13:36:31;15.20;99.90
45693;DHT22;31402;44.752;-0.374;2022-11-20T13:38:58;15.20;99.90
45693;DHT22;31402;44.752;-0.374;2022-11-20T13:41:29;15.10;99.90
45693;DHT22;31402;44.752;-0.374;2022-11-20T13:46:46;15.00;99.90
45693;DHT22;31402;44.752;-0.374;2022-11-20T13:49:31;14.90;99.90
45693;DHT22;31402;44.752;-0.374;2022-11-20T13:55:23;14.80;99.90
45693;DHT22;31402;44.752;-0.374;2022-11-20T13:58:15;14.70;99.90
45693;DHT22;31402;44.752;-0.374;2022-11-20T14:00:55;14.60;99.90
45693;DHT22;31402;44.752;-0.374;2022-11-20T14:03:25;14.70;99.90
45693;DHT22;31402;44.752;-0.374;2022-11-20T14:05:59;14.60;99.90
45693;DHT22;31402;44.752;-0.374;2022-11-20T14:11:20;14.50;99.90
45693;DHT22;31402;44.752;-0.374;2022-11-20T14:14:16;14.40;99.90
45693;DHT22;31402;44.752;-0.374;2022-11-20T14:16:43;14.40;99.90
45693;DHT22;31402;44.752;-0.374;2022-11-20T14:21:50;14.50;99.90
45693;DHT22;31402;44.752;-0.374;2022-11-20T14:24:23;14.60;99.90
45693;DHT22;31402;44.752;-0.374;2022-11-20T14:26:50;14.60;99.90
45693;DHT22;31402;44.752;-0.374;2022-11-20T14:29:18;14.70;99.90
45693;DHT22;31402;44.752;-0.374;2022-11-20T14:31:45;14.70;99.90
45693;DHT22;31402;44.752;-0.374;2022-11-20T14:34:21;14.70;99.90
45693;DHT22;31402;44.752;-0.374;2022-11-20T14:36:48;14.70;99.90
45693;DHT22;31402;44.752;-0.374;2022-11-20T14:39:23;14.70;99.90
45693;DHT22;31402;44.752;-0.374;2022-11-20T14:41:52;14.80;99.90
45693;DHT22;31402;44.752;-0.374;2022-11-20T14:44:23;14.80;99.90
45693;DHT22;31402;44.752;-0.374;2022-11-20T14:46:52;14.80;99.90
45693;DHT22;31402;44.752;-0.374;2022-11-20T14:49:19;14.90;99.90
45693;DHT22;31402;44.752;-0.374;2022-11-20T14:51:45;14.80;99.90
45693;DHT22;31402;44.752;-0.374;2022-11-20T14:54:16;14.70;99.90
45693;DHT22;31402;44.752;-0.374;2022-11-20T14:57:03;14.70;99.90
45693;DHT22;31402;44.752;-0.374;2022-11-20T14:59:33;14.60;99.90
45693;DHT22;31402;44.752;-0.374;2022-11-20T15:02:10;14.60;99.90
45693;DHT22;31402;44.752;-0.374;2022-11-20T15:05:03;14.60;99.90
45693;DHT22;31402;44.752;-0.374;2022-11-20T15:07:37;14.70;99.90
45693;DHT22;31402;44.752;-0.374;2022-11-20T15:10:06;14.70;99.90
45693;DHT22;31402;44.752;-0.374;2022-11-20T15:12:34;14.80;99.90
45693;DHT22;31402;44.752;-0.374;2022-11-20T15:15:02;14.80;99.90
45693;DHT22;31402;44.752;-0.374;2022-11-20T15:17:30;14.70;99.90
45693;DHT22;31402;44.752;-0.374;2022-11-20T15:19:56;14.70;99.90
45693;DHT22;31402;44.752;-0.374;2022-11-20T15:22:22;14.50;99.90
45693;DHT22;31402;44.752;-0.374;2022-11-20T15:24:47;14.50;99.90
45693;DHT22;31402;44.752;-0.374;2022-11-20T15:27:13;14.40;99.90
45693;DHT22;31402;44.752;-0.374;2022-11-20T15:29:39;14.40;99.90
45693;DHT22;31402;44.752;-0.374;2022-11-20T15:32:05;14.40;99.90
45693;DHT22;31402;44.752;-0.374;2022-11-20T15:34:30;14.30;99.90
45693;DHT22;31402;44.752;-0.374;2022-11-20T15:36:56;14.20;99.90
45693;DHT22;31402;44.752;-0.374;2022-11-20T15:39:22;14.20;99.90
45693;DHT22;31402;44.752;-0.374;2022-11-20T15:41:48;14.10;99.90
45693;DHT22;31402;44.752;-0.374;2022-11-20T15:44:13;14.10;99.90
45693;DHT22;31402;44.752;-0.374;2022-11-20T15:46:41;14.00;99.90
45693;DHT22;31402;44.752;-0.374;2022-11-20T15:49:13;14.00;99.90
45693;DHT22;31402;44.752;-0.374;2022-11-20T15:51:45;14.10;99.90
45693;DHT22;31402;44.752;-0.374;2022-11-20T15:54:14;14.00;99.90
45693;DHT22;31402;44.752;-0.374;2022-11-20T15:56:40;14.00;99.90
45693;DHT22;31402;44.752;-0.374;2022-11-20T15:59:07;14.00;99.90
45693;DHT22;31402;44.752;-0.374;2022-11-20T16:01:34;13.90;99.90
45693;DHT22;31402;44.752;-0.374;2022-11-20T16:04:01;13.90;99.90
45693;DHT22;31402;44.752;-0.374;2022-11-20T16:06:27;13.90;99.90
45693;DHT22;31402;44.752;-0.374;2022-11-20T16:08:52;13.90;99.90
45693;DHT22;31402;44.752;-0.374;2022-11-20T16:11:18;13.90;99.90
45693;DHT22;31402;44.752;-0.374;2022-11-20T16:13:44;13.90;99.90
45693;DHT22;31402;44.752;-0.374;2022-11-20T16:16:31;13.90;99.90
45693;DHT22;31402;44.752;-0.374;2022-11-20T16:18:58;13.80;99.90
45693;DHT22;31402;44.752;-0.374;2022-11-20T16:21:24;13.80;99.90
45693;DHT22;31402;44.752;-0.374;2022-11-20T16:23:58;13.80;99.90
45693;DHT22;31402;44.752;-0.374;2022-11-20T16:26:24;13.80;99.90
45693;DHT22;31402;44.752;-0.374;2022-11-20T16:28:51;13.80;99.90
45693;DHT22;31402;44.752;-0.374;2022-11-20T16:31:18;13.80;99.90
45693;DHT22;31402;44.752;-0.374;2022-11-20T16:33:57;13.80;99.90
45693;DHT22;31402;44.752;-0.374;2022-11-20T16:36:24;13.80;99.90
45693;DHT22;31402;44.752;-0.374;2022-11-20T16:38:56;13.80;99.90
45693;DHT22;31402;44.752;-0.374;2022-11-20T16:41:23;13.90;99.90
45693;DHT22;31402;44.752;-0.374;2022-11-20T16:43:53;13.90;99.90
45693;DHT22;31402;44.752;-0.374;2022-11-20T16:46:21;13.80;99.90
45693;DHT22;31402;44.752;-0.374;2022-11-20T16:48:55;13.70;99.90
45693;DHT22;31402;44.752;-0.374;2022-11-20T16:51:21;13.60;99.90
45693;DHT22;31402;44.752;-0.374;2022-11-20T16:53:47;13.50;99.90
45693;DHT22;31402;44.752;-0.374;2022-11-20T16:56:17;13.50;99.90
45693;DHT22;31402;44.752;-0.374;2022-11-20T16:58:47;13.60;99.90
45693;DHT22;31402;44.752;-0.374;2022-11-20T17:01:18;13.60;99.90
45693;DHT22;31402;44.752;-0.374;2022-11-20T17:03:46;13.60;99.90
45693;DHT22;31402;44.752;-0.374;2022-11-20T17:06:16;13.60;99.90
45693;DHT22;31402;44.752;-0.374;2022-11-20T17:08:43;13.60;99.90
45693;DHT22;31402;44.752;-0.374;2022-11-20T17:11:11;13.60;99.90
45693;DHT22;31402;44.752;-0.374;2022-11-20T17:13:37;13.60;99.90
45693;DHT22;31402;44.752;-0.374;2022-11-20T17:16:05;13.60;99.90
45693;DHT22;31402;44.752;-0.374;2022-11-20T17:18:31;13.60;99.90
45693;DHT22;31402;44.752;-0.374;2022-11-20T17:20:58;13.70;99.90